sensor_id;sensor_type;location;lat;lon;timestamp;pressure;altitude;pressure_sealevel;temperature
64916;BMP280;51427;-27.442;153.014;2022-12-18T00:01:46;101606.00;;;26.96
64916;BMP280;51427;-27.442;153.014;2022-12-18T00:04:24;101614.59;;;28.02
64916;BMP280;51427;-27.442;153.014;2022-12-18T00:06:52;101601.78;;;26.72
64916;BMP280;51427;-27.442;153.014;2022-12-18T00:09:21;101598.97;;;27.99
64916;BMP280;51427;-27.442;153.014;2022-12-18T00:11:49;101605.66;;;27.44
64916;BMP280;51427;-27.442;153.014;2022-12-18T00:14:17;101603.78;;;26.40
64916;BMP280;51427;-27.442;153.014;2022-12-18T00:16:45;101597.13;;;27.04
64916;BMP280;51427;-27.442;153.014;2022-12-18T00:19:14;101593.13;;;27.52
64916;BMP280;51427;-27.442;153.014;2022-12-18T00:21:43;101599.84;;;26.28
64916;BMP280;51427;-27.442;153.014;2022-12-18T00:24:11;101583.00;;;26.43
64916;BMP280;51427;-27.442;153.014;2022-12-18T00:26:39;101590.03;;;26.66
64916;BMP280;51427;-27.442;153.014;2022-12-18T00:29:12;101586.81;;;28.33
64916;BMP280;51427;-27.442;153.014;2022-12-18T00:31:43;101591.66;;;26.75
64916;BMP280;51427;-27.442;153.014;2022-12-18T00:34:12;101573.50;;;28.54
64916;BMP280;51427;-27.442;153.014;2022-12-18T00:36:41;101572.66;;;28.82
64916;BMP280;51427;-27.442;153.014;2022-12-18T00:39:10;101565.53;;;28.89
64916;BMP280;51427;-27.442;153.014;2022-12-18T00:41:38;101566.91;;;27.92
64916;BMP280;51427;-27.442;153.014;2022-12-18T00:44:24;101554.72;;;28.12
64916;BMP280;51427;-27.442;153.014;2022-12-18T00:46:51;101555.34;;;26.82
64916;BMP280;51427;-27.442;153.014;2022-12-18T00:49:20;101548.44;;;27.40
64916;BMP280;51427;-27.442;153.014;2022-12-18T00:51:48;101548.41;;;27.03
64916;BMP280;51427;-27.442;153.014;2022-12-18T00:54:16;101552.84;;;28.41
64916;BMP280;51427;-27.442;153.014;2022-12-18T00:56:44;101544.19;;;26.87
64916;BMP280;51427;-27.442;153.014;2022-12-18T00:59:12;101545.16;;;27.75
64916;BMP280;51427;-27.442;153.014;2022-12-18T01:01:40;101528.59;;;27.50
64916;BMP280;51427;-27.442;153.014;2022-12-18T01:04:07;101527.47;;;28.81
64916;BMP280;51427;-27.442;153.014;2022-12-18T01:06:35;101519.84;;;28.42
64916;BMP280;51427;-27.442;153.014;2022-12-18T01:09:03;101531.66;;;27.39
64916;BMP280;51427;-27.442;153.014;2022-12-18T01:11:30;101514.63;;;27.77
64916;BMP280;51427;-27.442;153.014;2022-12-18T01:13:59;101512.69;;;28.78
64916;BMP280;51427;-27.442;153.014;2022-12-18T01:16:27;101500.19;;;28.64
64916;BMP280;51427;-27.442;153.014;2022-12-18T01:18:55;101515.78;;;28.46
64916;BMP280;51427;-27.442;153.014;2022-12-18T01:21:24;101510.91;;;30.21
64916;BMP280;51427;-27.442;153.014;2022-12-18T01:23:53;101498.22;;;30.36
64916;BMP280;51427;-27.442;153.014;2022-12-18T01:26:21;101515.03;;;29.08
64916;BMP280;51427;-27.442;153.014;2022-12-18T01:28:49;101502.16;;;30.00
64916;BMP280;51427;-27.442;153.014;2022-12-18T01:33:46;101500.69;;;29.64
64916;BMP280;51427;-27.442;153.014;2022-12-18T01:36:23;101484.84;;;29.62
64916;BMP280;51427;-27.442;153.014;2022-12-18T01:38:51;101479.13;;;29.99
64916;BMP280;51427;-27.442;153.014;2022-12-18T01:41:25;101480.69;;;29.53
64916;BMP280;51427;-27.442;153.014;2022-12-18T01:43:56;101482.13;;;29.49
64916;BMP280;51427;-27.442;153.014;2022-12-18T01:46:26;101471.91;;;29.99
64916;BMP280;51427;-27.442;153.014;2022-12-18T01:48:57;101463.25;;;30.37
64916;BMP280;51427;-27.442;153.014;2022-12-18T01:51:27;101472.53;;;30.35
64916;BMP280;51427;-27.442;153.014;2022-12-18T01:53:55;101452.94;;;30.34
64916;BMP280;51427;-27.442;153.014;2022-12-18T01:56:24;101441.00;;;29.50
64916;BMP280;51427;-27.442;153.014;2022-12-18T01:59:03;101448.78;;;27.71
64916;BMP280;51427;-27.442;153.014;2022-12-18T02:01:33;101447.72;;;28.50
64916;BMP280;51427;-27.442;153.014;2022-12-18T02:09:40;101441.09;;;28.26
64916;BMP280;51427;-27.442;153.014;2022-12-18T02:12:18;101437.88;;;28.92
64916;BMP280;51427;-27.442;153.014;2022-12-18T02:15:06;101428.97;;;29.33
64916;BMP280;51427;-27.442;153.014;2022-12-18T02:20:33;101427.31;;;30.00
64916;BMP280;51427;-27.442;153.014;2022-12-18T02:28:33;101427.63;;;28.69
64916;BMP280;51427;-27.442;153.014;2022-12-18T02:31:04;101426.47;;;28.22
64916;BMP280;51427;-27.442;153.014;2022-12-18T02:33:34;101419.09;;;29.00
64916;BMP280;51427;-27.442;153.014;2022-12-18T02:36:03;101407.03;;;29.78
64916;BMP280;51427;-27.442;153.014;2022-12-18T02:38:31;101403.13;;;29.74
64916;BMP280;51427;-27.442;153.014;2022-12-18T02:41:01;101399.03;;;30.24
64916;BMP280;51427;-27.442;153.014;2022-12-18T02:43:30;101397.03;;;30.39
64916;BMP280;51427;-27.442;153.014;2022-12-18T02:45:59;101393.78;;;30.89
64916;BMP280;51427;-27.442;153.014;2022-12-18T02:48:35;101389.66;;;30.67
64916;BMP280;51427;-27.442;153.014;2022-12-18T02:51:17;101397.88;;;30.78
64916;BMP280;51427;-27.442;153.014;2022-12-18T02:53:58;101386.38;;;29.99
64916;BMP280;51427;-27.442;153.014;2022-12-18T02:56:38;101384.84;;;29.10
64916;BMP280;51427;-27.442;153.014;2022-12-18T02:59:19;101384.28;;;30.80
64916;BMP280;51427;-27.442;153.014;2022-12-18T03:04:40;101368.13;;;30.03
64916;BMP280;51427;-27.442;153.014;2022-12-18T03:07:18;101371.47;;;29.31
64916;BMP280;51427;-27.442;153.014;2022-12-18T03:09:50;101368.06;;;29.90
64916;BMP280;51427;-27.442;153.014;2022-12-18T03:12:27;101370.00;;;29.01
64916;BMP280;51427;-27.442;153.014;2022-12-18T03:17:33;101371.16;;;27.74
64916;BMP280;51427;-27.442;153.014;2022-12-18T03:20:14;101378.25;;;27.53
64916;BMP280;51427;-27.442;153.014;2022-12-18T03:22:44;101379.09;;;27.53
64916;BMP280;51427;-27.442;153.014;2022-12-18T03:25:14;101382.75;;;26.87
64916;BMP280;51427;-27.442;153.014;2022-12-18T03:27:47;101368.50;;;28.24
64916;BMP280;51427;-27.442;153.014;2022-12-18T03:30:16;101365.00;;;27.16
64916;BMP280;51427;-27.442;153.014;2022-12-18T03:32:53;101363.38;;;27.44
64916;BMP280;51427;-27.442;153.014;2022-12-18T03:35:30;101366.97;;;27.37
64916;BMP280;51427;-27.442;153.014;2022-12-18T03:37:58;101367.50;;;26.45
64916;BMP280;51427;-27.442;153.014;2022-12-18T03:48:53;101365.25;;;26.56
64916;BMP280;51427;-27.442;153.014;2022-12-18T03:51:53;101370.94;;;26.31
64916;BMP280;51427;-27.442;153.014;2022-12-18T03:54:23;101368.28;;;26.67
64916;BMP280;51427;-27.442;153.014;2022-12-18T03:56:59;101375.13;;;26.84
64916;BMP280;51427;-27.442;153.014;2022-12-18T03:59:29;101378.41;;;26.72
64916;BMP280;51427;-27.442;153.014;2022-12-18T04:01:58;101375.75;;;27.08
64916;BMP280;51427;-27.442;153.014;2022-12-18T04:04:28;101369.16;;;27.19
64916;BMP280;51427;-27.442;153.014;2022-12-18T04:06:56;101379.38;;;26.93
64916;BMP280;51427;-27.442;153.014;2022-12-18T04:09:24;101373.19;;;27.15
64916;BMP280;51427;-27.442;153.014;2022-12-18T04:11:53;101367.41;;;27.11
64916;BMP280;51427;-27.442;153.014;2022-12-18T04:14:20;101365.03;;;27.31
64916;BMP280;51427;-27.442;153.014;2022-12-18T04:16:48;101377.44;;;27.52
64916;BMP280;51427;-27.442;153.014;2022-12-18T04:19:15;101377.00;;;27.49
64916;BMP280;51427;-27.442;153.014;2022-12-18T04:21:43;101377.75;;;26.92
64916;BMP280;51427;-27.442;153.014;2022-12-18T04:24:11;101374.91;;;26.71
64916;BMP280;51427;-27.442;153.014;2022-12-18T04:26:38;101371.25;;;26.72
64916;BMP280;51427;-27.442;153.014;2022-12-18T04:29:06;101373.78;;;26.88
64916;BMP280;51427;-27.442;153.014;2022-12-18T04:31:33;101372.09;;;26.95
64916;BMP280;51427;-27.442;153.014;2022-12-18T04:34:01;101368.88;;;27.28
64916;BMP280;51427;-27.442;153.014;2022-12-18T04:36:29;101361.34;;;27.03
64916;BMP280;51427;-27.442;153.014;2022-12-18T04:38:56;101366.66;;;27.17
64916;BMP280;51427;-27.442;153.014;2022-12-18T04:41:24;101367.63;;;26.51
64916;BMP280;51427;-27.442;153.014;2022-12-18T04:43:52;101365.66;;;27.04
64916;BMP280;51427;-27.442;153.014;2022-12-18T04:46:19;101358.88;;;27.44
64916;BMP280;51427;-27.442;153.014;2022-12-18T04:48:47;101367.41;;;26.75
64916;BMP280;51427;-27.442;153.014;2022-12-18T04:51:15;101360.63;;;27.09
64916;BMP280;51427;-27.442;153.014;2022-12-18T04:53:43;101353.66;;;26.71
64916;BMP280;51427;-27.442;153.014;2022-12-18T04:56:14;101341.59;;;27.69
64916;BMP280;51427;-27.442;153.014;2022-12-18T04:58:44;101339.63;;;27.57
64916;BMP280;51427;-27.442;153.014;2022-12-18T05:01:13;101332.63;;;27.13
64916;BMP280;51427;-27.442;153.014;2022-12-18T05:03:41;101334.63;;;27.25
64916;BMP280;51427;-27.442;153.014;2022-12-18T05:06:09;101317.25;;;27.72
64916;BMP280;51427;-27.442;153.014;2022-12-18T05:08:37;101300.88;;;27.26
64916;BMP280;51427;-27.442;153.014;2022-12-18T05:11:14;101304.13;;;26.70
64916;BMP280;51427;-27.442;153.014;2022-12-18T05:13:45;101295.94;;;26.57
64916;BMP280;51427;-27.442;153.014;2022-12-18T05:16:14;101291.25;;;27.25
64916;BMP280;51427;-27.442;153.014;2022-12-18T05:18:42;101308.66;;;26.47
64916;BMP280;51427;-27.442;153.014;2022-12-18T05:21:09;101287.69;;;26.67
64916;BMP280;51427;-27.442;153.014;2022-12-18T05:23:37;101284.53;;;27.29
64916;BMP280;51427;-27.442;153.014;2022-12-18T05:26:06;101281.47;;;27.32
64916;BMP280;51427;-27.442;153.014;2022-12-18T05:28:35;101289.50;;;27.03
64916;BMP280;51427;-27.442;153.014;2022-12-18T05:31:04;101280.41;;;27.55
64916;BMP280;51427;-27.442;153.014;2022-12-18T05:33:34;101291.44;;;27.23
64916;BMP280;51427;-27.442;153.014;2022-12-18T05:36:03;101290.19;;;27.54
64916;BMP280;51427;-27.442;153.014;2022-12-18T05:38:33;101289.63;;;26.73
64916;BMP280;51427;-27.442;153.014;2022-12-18T05:41:01;101295.28;;;26.92
64916;BMP280;51427;-27.442;153.014;2022-12-18T05:43:29;101284.31;;;26.58
64916;BMP280;51427;-27.442;153.014;2022-12-18T05:45:57;101286.47;;;26.41
64916;BMP280;51427;-27.442;153.014;2022-12-18T05:48:24;101288.75;;;25.77
64916;BMP280;51427;-27.442;153.014;2022-12-18T05:50:52;101266.97;;;25.81
64916;BMP280;51427;-27.442;153.014;2022-12-18T05:53:20;101262.00;;;26.59
64916;BMP280;51427;-27.442;153.014;2022-12-18T05:55:48;101273.59;;;25.85
64916;BMP280;51427;-27.442;153.014;2022-12-18T05:58:16;101270.06;;;25.93
64916;BMP280;51427;-27.442;153.014;2022-12-18T06:00:45;101267.00;;;26.03
64916;BMP280;51427;-27.442;153.014;2022-12-18T06:03:13;101263.63;;;26.09
64916;BMP280;51427;-27.442;153.014;2022-12-18T06:05:43;101267.97;;;26.25
64916;BMP280;51427;-27.442;153.014;2022-12-18T06:08:12;101269.13;;;26.08
64916;BMP280;51427;-27.442;153.014;2022-12-18T06:10:40;101268.09;;;26.09
64916;BMP280;51427;-27.442;153.014;2022-12-18T06:13:08;101269.22;;;26.37
64916;BMP280;51427;-27.442;153.014;2022-12-18T06:15:39;101268.03;;;26.17
64916;BMP280;51427;-27.442;153.014;2022-12-18T06:18:06;101263.44;;;26.11
64916;BMP280;51427;-27.442;153.014;2022-12-18T06:20:34;101267.16;;;26.61
64916;BMP280;51427;-27.442;153.014;2022-12-18T06:23:04;101271.38;;;26.70
64916;BMP280;51427;-27.442;153.014;2022-12-18T06:25:31;101282.63;;;26.21
64916;BMP280;51427;-27.442;153.014;2022-12-18T06:27:59;101274.25;;;25.87
64916;BMP280;51427;-27.442;153.014;2022-12-18T06:30:27;101263.66;;;26.24
64916;BMP280;51427;-27.442;153.014;2022-12-18T06:32:55;101263.78;;;26.81
64916;BMP280;51427;-27.442;153.014;2022-12-18T06:35:23;101260.28;;;26.66
64916;BMP280;51427;-27.442;153.014;2022-12-18T06:37:51;101273.34;;;26.39
64916;BMP280;51427;-27.442;153.014;2022-12-18T06:40:18;101282.97;;;25.73
64916;BMP280;51427;-27.442;153.014;2022-12-18T06:42:49;101285.06;;;26.08
64916;BMP280;51427;-27.442;153.014;2022-12-18T06:45:17;101278.06;;;26.51
64916;BMP280;51427;-27.442;153.014;2022-12-18T06:47:45;101282.50;;;26.14
64916;BMP280;51427;-27.442;153.014;2022-12-18T06:50:13;101279.72;;;26.52
64916;BMP280;51427;-27.442;153.014;2022-12-18T06:52:40;101303.06;;;25.68
64916;BMP280;51427;-27.442;153.014;2022-12-18T06:55:11;101302.41;;;25.96
64916;BMP280;51427;-27.442;153.014;2022-12-18T06:57:39;101300.41;;;25.68
64916;BMP280;51427;-27.442;153.014;2022-12-18T07:00:07;101298.00;;;26.11
64916;BMP280;51427;-27.442;153.014;2022-12-18T07:02:35;101307.94;;;26.09
64916;BMP280;51427;-27.442;153.014;2022-12-18T07:05:03;101312.75;;;25.83
64916;BMP280;51427;-27.442;153.014;2022-12-18T07:07:31;101314.06;;;25.87
64916;BMP280;51427;-27.442;153.014;2022-12-18T07:09:58;101328.94;;;25.28
64916;BMP280;51427;-27.442;153.014;2022-12-18T07:12:27;101334.06;;;25.75
64916;BMP280;51427;-27.442;153.014;2022-12-18T07:14:55;101333.13;;;25.52
64916;BMP280;51427;-27.442;153.014;2022-12-18T07:17:22;101334.56;;;25.71
64916;BMP280;51427;-27.442;153.014;2022-12-18T07:19:50;101346.38;;;25.68
64916;BMP280;51427;-27.442;153.014;2022-12-18T07:22:18;101345.53;;;25.30
64916;BMP280;51427;-27.442;153.014;2022-12-18T07:24:45;101351.84;;;25.21
64916;BMP280;51427;-27.442;153.014;2022-12-18T07:27:13;101355.47;;;25.28
64916;BMP280;51427;-27.442;153.014;2022-12-18T07:29:41;101358.13;;;25.74
64916;BMP280;51427;-27.442;153.014;2022-12-18T07:32:08;101367.03;;;25.43
64916;BMP280;51427;-27.442;153.014;2022-12-18T07:34:36;101364.59;;;25.79
64916;BMP280;51427;-27.442;153.014;2022-12-18T07:37:04;101366.09;;;26.04
64916;BMP280;51427;-27.442;153.014;2022-12-18T07:39:31;101365.50;;;25.64
64916;BMP280;51427;-27.442;153.014;2022-12-18T07:41:59;101362.16;;;25.16
64916;BMP280;51427;-27.442;153.014;2022-12-18T07:44:44;101365.84;;;24.99
64916;BMP280;51427;-27.442;153.014;2022-12-18T07:47:12;101363.31;;;24.90
64916;BMP280;51427;-27.442;153.014;2022-12-18T07:49:40;101372.97;;;24.75
64916;BMP280;51427;-27.442;153.014;2022-12-18T07:52:08;101364.69;;;25.48
64916;BMP280;51427;-27.442;153.014;2022-12-18T07:54:36;101369.72;;;25.35
64916;BMP280;51427;-27.442;153.014;2022-12-18T07:57:03;101377.41;;;24.74
64916;BMP280;51427;-27.442;153.014;2022-12-18T07:59:31;101373.09;;;25.05
64916;BMP280;51427;-27.442;153.014;2022-12-18T08:01:59;101388.19;;;24.57
64916;BMP280;51427;-27.442;153.014;2022-12-18T08:04:26;101391.34;;;24.84
64916;BMP280;51427;-27.442;153.014;2022-12-18T08:06:54;101403.97;;;24.98
64916;BMP280;51427;-27.442;153.014;2022-12-18T08:09:22;101415.03;;;24.62
64916;BMP280;51427;-27.442;153.014;2022-12-18T08:11:49;101419.84;;;24.51
64916;BMP280;51427;-27.442;153.014;2022-12-18T08:14:17;101418.47;;;24.31
64916;BMP280;51427;-27.442;153.014;2022-12-18T08:16:44;101411.25;;;24.64
64916;BMP280;51427;-27.442;153.014;2022-12-18T08:19:12;101426.13;;;24.57
64916;BMP280;51427;-27.442;153.014;2022-12-18T08:21:41;101424.16;;;24.83
64916;BMP280;51427;-27.442;153.014;2022-12-18T08:24:09;101422.66;;;24.41
64916;BMP280;51427;-27.442;153.014;2022-12-18T08:26:37;101433.63;;;24.13
64916;BMP280;51427;-27.442;153.014;2022-12-18T08:29:05;101424.97;;;24.44
64916;BMP280;51427;-27.442;153.014;2022-12-18T08:31:33;101433.41;;;24.48
64916;BMP280;51427;-27.442;153.014;2022-12-18T08:34:01;101433.78;;;24.11
64916;BMP280;51427;-27.442;153.014;2022-12-18T08:36:28;101434.25;;;23.99
64916;BMP280;51427;-27.442;153.014;2022-12-18T08:38:57;101420.81;;;24.97
64916;BMP280;51427;-27.442;153.014;2022-12-18T08:41:24;101438.94;;;24.21
64916;BMP280;51427;-27.442;153.014;2022-12-18T08:43:52;101437.63;;;24.17
64916;BMP280;51427;-27.442;153.014;2022-12-18T08:46:40;101433.25;;;24.33
64916;BMP280;51427;-27.442;153.014;2022-12-18T08:49:08;101435.91;;;23.92
64916;BMP280;51427;-27.442;153.014;2022-12-18T08:51:36;101421.41;;;24.20
64916;BMP280;51427;-27.442;153.014;2022-12-18T08:54:04;101428.97;;;23.99
64916;BMP280;51427;-27.442;153.014;2022-12-18T08:56:32;101436.59;;;24.02
64916;BMP280;51427;-27.442;153.014;2022-12-18T08:58:59;101436.25;;;24.05
64916;BMP280;51427;-27.442;153.014;2022-12-18T09:01:27;101435.88;;;23.84
64916;BMP280;51427;-27.442;153.014;2022-12-18T09:03:54;101434.66;;;24.12
64916;BMP280;51427;-27.442;153.014;2022-12-18T09:06:22;101438.16;;;24.28
64916;BMP280;51427;-27.442;153.014;2022-12-18T09:08:50;101455.09;;;23.94
64916;BMP280;51427;-27.442;153.014;2022-12-18T09:11:25;101454.81;;;24.05
64916;BMP280;51427;-27.442;153.014;2022-12-18T09:13:53;101459.97;;;23.73
64916;BMP280;51427;-27.442;153.014;2022-12-18T09:16:22;101473.66;;;23.44
64916;BMP280;51427;-27.442;153.014;2022-12-18T09:18:49;101467.25;;;24.12
64916;BMP280;51427;-27.442;153.014;2022-12-18T09:21:19;101472.63;;;24.36
64916;BMP280;51427;-27.442;153.014;2022-12-18T09:23:50;101482.81;;;24.72
64916;BMP280;51427;-27.442;153.014;2022-12-18T09:26:18;101496.50;;;23.95
64916;BMP280;51427;-27.442;153.014;2022-12-18T09:28:46;101484.66;;;24.15
64916;BMP280;51427;-27.442;153.014;2022-12-18T09:31:15;101495.22;;;23.57
64916;BMP280;51427;-27.442;153.014;2022-12-18T09:33:43;101497.41;;;23.78
64916;BMP280;51427;-27.442;153.014;2022-12-18T09:36:14;101492.06;;;24.45
64916;BMP280;51427;-27.442;153.014;2022-12-18T09:38:42;101510.84;;;24.26
64916;BMP280;51427;-27.442;153.014;2022-12-18T09:41:44;101522.81;;;23.71
64916;BMP280;51427;-27.442;153.014;2022-12-18T09:44:23;101518.22;;;24.07
64916;BMP280;51427;-27.442;153.014;2022-12-18T09:47:10;101530.81;;;24.12
64916;BMP280;51427;-27.442;153.014;2022-12-18T09:49:46;101532.28;;;23.74
64916;BMP280;51427;-27.442;153.014;2022-12-18T09:52:27;101540.72;;;23.52
64916;BMP280;51427;-27.442;153.014;2022-12-18T09:55:10;101536.56;;;24.00
64916;BMP280;51427;-27.442;153.014;2022-12-18T09:57:42;101537.19;;;23.94
64916;BMP280;51427;-27.442;153.014;2022-12-18T10:00:23;101533.38;;;23.63
64916;BMP280;51427;-27.442;153.014;2022-12-18T10:02:59;101533.19;;;24.23
64916;BMP280;51427;-27.442;153.014;2022-12-18T10:07:59;101539.63;;;24.21
64916;BMP280;51427;-27.442;153.014;2022-12-18T10:16:17;101545.41;;;23.83
64916;BMP280;51427;-27.442;153.014;2022-12-18T10:27:16;101532.38;;;24.23
64916;BMP280;51427;-27.442;153.014;2022-12-18T10:29:45;101542.16;;;23.97
64916;BMP280;51427;-27.442;153.014;2022-12-18T10:32:24;101528.06;;;23.63
64916;BMP280;51427;-27.442;153.014;2022-12-18T10:34:55;101546.53;;;23.56
64916;BMP280;51427;-27.442;153.014;2022-12-18T10:37:28;101543.03;;;23.55
64916;BMP280;51427;-27.442;153.014;2022-12-18T10:40:14;101535.94;;;24.06
64916;BMP280;51427;-27.442;153.014;2022-12-18T10:42:42;101552.59;;;23.99
64916;BMP280;51427;-27.442;153.014;2022-12-18T10:45:14;101553.88;;;24.20
64916;BMP280;51427;-27.442;153.014;2022-12-18T10:47:48;101563.97;;;23.91
64916;BMP280;51427;-27.442;153.014;2022-12-18T10:50:27;101574.69;;;23.82
64916;BMP280;51427;-27.442;153.014;2022-12-18T10:52:58;101565.78;;;24.24
64916;BMP280;51427;-27.442;153.014;2022-12-18T10:55:38;101572.81;;;24.00
64916;BMP280;51427;-27.442;153.014;2022-12-18T10:58:25;101577.50;;;24.47
64916;BMP280;51427;-27.442;153.014;2022-12-18T11:06:15;101578.34;;;23.89
64916;BMP280;51427;-27.442;153.014;2022-12-18T11:08:44;101582.38;;;23.50
64916;BMP280;51427;-27.442;153.014;2022-12-18T11:11:24;101599.25;;;23.49
64916;BMP280;51427;-27.442;153.014;2022-12-18T11:14:00;101587.50;;;23.52
64916;BMP280;51427;-27.442;153.014;2022-12-18T11:16:34;101593.00;;;24.01
64916;BMP280;51427;-27.442;153.014;2022-12-18T11:21:41;101593.72;;;23.43
64916;BMP280;51427;-27.442;153.014;2022-12-18T11:24:29;101598.28;;;23.58
64916;BMP280;51427;-27.442;153.014;2022-12-18T11:27:02;101589.75;;;23.81
64916;BMP280;51427;-27.442;153.014;2022-12-18T11:29:35;101590.41;;;23.83
64916;BMP280;51427;-27.442;153.014;2022-12-18T11:35:04;101614.44;;;23.64
64916;BMP280;51427;-27.442;153.014;2022-12-18T11:37:35;101611.50;;;23.67
64916;BMP280;51427;-27.442;153.014;2022-12-18T11:40:17;101615.47;;;23.71
64916;BMP280;51427;-27.442;153.014;2022-12-18T11:43:21;101610.28;;;24.12
64916;BMP280;51427;-27.442;153.014;2022-12-18T11:45:56;101598.50;;;23.82
64916;BMP280;51427;-27.442;153.014;2022-12-18T11:48:42;101589.91;;;24.13
64916;BMP280;51427;-27.442;153.014;2022-12-18T11:51:15;101602.09;;;23.73
64916;BMP280;51427;-27.442;153.014;2022-12-18T11:53:46;101605.50;;;23.65
64916;BMP280;51427;-27.442;153.014;2022-12-18T11:56:35;101591.16;;;23.51
64916;BMP280;51427;-27.442;153.014;2022-12-18T12:01:48;101597.03;;;23.87
64916;BMP280;51427;-27.442;153.014;2022-12-18T12:04:22;101589.75;;;23.81
64916;BMP280;51427;-27.442;153.014;2022-12-18T12:07:04;101592.44;;;23.89
64916;BMP280;51427;-27.442;153.014;2022-12-18T12:10:19;101589.19;;;23.53
64916;BMP280;51427;-27.442;153.014;2022-12-18T12:13:01;101592.22;;;24.08
64916;BMP280;51427;-27.442;153.014;2022-12-18T12:21:24;101596.16;;;23.19
64916;BMP280;51427;-27.442;153.014;2022-12-18T12:24:17;101596.06;;;23.88
64916;BMP280;51427;-27.442;153.014;2022-12-18T12:40:35;101609.16;;;23.90
64916;BMP280;51427;-27.442;153.014;2022-12-18T12:43:15;101614.31;;;23.57
64916;BMP280;51427;-27.442;153.014;2022-12-18T12:48:22;101619.44;;;23.33
64916;BMP280;51427;-27.442;153.014;2022-12-18T12:50:51;101614.91;;;23.25
64916;BMP280;51427;-27.442;153.014;2022-12-18T12:53:28;101612.03;;;23.19
64916;BMP280;51427;-27.442;153.014;2022-12-18T12:55:57;101608.47;;;23.45
64916;BMP280;51427;-27.442;153.014;2022-12-18T13:07:01;101603.13;;;23.20
64916;BMP280;51427;-27.442;153.014;2022-12-18T13:09:34;101599.84;;;23.43
64916;BMP280;51427;-27.442;153.014;2022-12-18T13:12:09;101601.25;;;23.55
64916;BMP280;51427;-27.442;153.014;2022-12-18T13:15:13;101603.47;;;23.42
64916;BMP280;51427;-27.442;153.014;2022-12-18T13:17:46;101595.50;;;23.17
64916;BMP280;51427;-27.442;153.014;2022-12-18T13:20:14;101597.69;;;23.81
64916;BMP280;51427;-27.442;153.014;2022-12-18T13:22:47;101600.53;;;22.67
64916;BMP280;51427;-27.442;153.014;2022-12-18T13:38:40;101579.31;;;23.20
64916;BMP280;51427;-27.442;153.014;2022-12-18T13:41:23;101570.38;;;23.21
64916;BMP280;51427;-27.442;153.014;2022-12-18T13:46:46;101564.59;;;23.00
64916;BMP280;51427;-27.442;153.014;2022-12-18T13:51:48;101545.34;;;23.33
64916;BMP280;51427;-27.442;153.014;2022-12-18T13:54:19;101553.75;;;23.54
64916;BMP280;51427;-27.442;153.014;2022-12-18T13:56:49;101547.13;;;23.50
64916;BMP280;51427;-27.442;153.014;2022-12-18T13:59:33;101544.22;;;23.18
64916;BMP280;51427;-27.442;153.014;2022-12-18T14:02:15;101538.00;;;23.02
64916;BMP280;51427;-27.442;153.014;2022-12-18T14:04:46;101529.75;;;23.64
64916;BMP280;51427;-27.442;153.014;2022-12-18T14:07:22;101522.19;;;23.77
64916;BMP280;51427;-27.442;153.014;2022-12-18T14:09:53;101511.66;;;23.85
64916;BMP280;51427;-27.442;153.014;2022-12-18T14:12:28;101514.34;;;23.93
64916;BMP280;51427;-27.442;153.014;2022-12-18T14:20:25;101509.00;;;23.85
64916;BMP280;51427;-27.442;153.014;2022-12-18T14:22:52;101516.56;;;23.72
64916;BMP280;51427;-27.442;153.014;2022-12-18T14:25:25;101513.94;;;23.80
64916;BMP280;51427;-27.442;153.014;2022-12-18T14:28:07;101513.91;;;23.30
64916;BMP280;51427;-27.442;153.014;2022-12-18T14:30:43;101514.88;;;23.29
64916;BMP280;51427;-27.442;153.014;2022-12-18T14:33:20;101517.09;;;22.81
64916;BMP280;51427;-27.442;153.014;2022-12-18T14:35:59;101504.34;;;23.79
64916;BMP280;51427;-27.442;153.014;2022-12-18T14:38:37;101496.59;;;23.61
64916;BMP280;51427;-27.442;153.014;2022-12-18T14:43:34;101488.22;;;24.39
64916;BMP280;51427;-27.442;153.014;2022-12-18T14:46:05;101492.25;;;23.77
64916;BMP280;51427;-27.442;153.014;2022-12-18T14:48:41;101494.53;;;23.47
64916;BMP280;51427;-27.442;153.014;2022-12-18T14:51:21;101493.91;;;23.53
64916;BMP280;51427;-27.442;153.014;2022-12-18T14:53:59;101494.38;;;23.06
64916;BMP280;51427;-27.442;153.014;2022-12-18T14:56:34;101501.16;;;23.25
64916;BMP280;51427;-27.442;153.014;2022-12-18T15:01:39;101496.44;;;23.37
64916;BMP280;51427;-27.442;153.014;2022-12-18T15:09:33;101493.09;;;23.77
64916;BMP280;51427;-27.442;153.014;2022-12-18T15:12:01;101486.75;;;23.70
64916;BMP280;51427;-27.442;153.014;2022-12-18T15:14:39;101493.97;;;23.35
64916;BMP280;51427;-27.442;153.014;2022-12-18T15:17:19;101494.59;;;23.80
64916;BMP280;51427;-27.442;153.014;2022-12-18T15:19:50;101488.09;;;23.49
64916;BMP280;51427;-27.442;153.014;2022-12-18T15:24:50;101478.97;;;23.44
64916;BMP280;51427;-27.442;153.014;2022-12-18T15:27:29;101472.78;;;22.58
64916;BMP280;51427;-27.442;153.014;2022-12-18T15:30:24;101458.19;;;23.57
64916;BMP280;51427;-27.442;153.014;2022-12-18T15:32:52;101454.28;;;23.94
64916;BMP280;51427;-27.442;153.014;2022-12-18T15:35:40;101466.81;;;23.08
64916;BMP280;51427;-27.442;153.014;2022-12-18T15:38:07;101459.78;;;22.82
64916;BMP280;51427;-27.442;153.014;2022-12-18T15:40:34;101458.50;;;22.68
64916;BMP280;51427;-27.442;153.014;2022-12-18T15:43:04;101453.75;;;23.07
64916;BMP280;51427;-27.442;153.014;2022-12-18T15:45:49;101451.78;;;22.91
64916;BMP280;51427;-27.442;153.014;2022-12-18T15:48:23;101449.28;;;23.07
64916;BMP280;51427;-27.442;153.014;2022-12-18T15:50:54;101453.34;;;22.84
64916;BMP280;51427;-27.442;153.014;2022-12-18T15:53:24;101451.78;;;22.91
64916;BMP280;51427;-27.442;153.014;2022-12-18T15:55:52;101452.38;;;23.03